sensor_id;sensor_type;location;lat;lon;timestamp;P1;durP1;ratioP1;P2;durP2;ratioP2
25381;SDS011;16307;42.896;20.874;2023-05-10T06:58:43;3.78;;;2.20;;
25381;SDS011;16307;42.896;20.874;2023-05-10T07:44:58;13.52;;;7.60;;
25381;SDS011;16307;42.896;20.874;2023-05-10T07:48:26;7.45;;;5.30;;
25381;SDS011;16307;42.896;20.874;2023-05-10T08:15:23;8.38;;;5.03;;
25381;SDS011;16307;42.896;20.874;2023-05-10T08:18:35;9.93;;;4.18;;
25381;SDS011;16307;42.896;20.874;2023-05-10T08:22:00;8.65;;;3.90;;
25381;SDS011;16307;42.896;20.874;2023-05-10T08:25:39;6.60;;;3.17;;
25381;SDS011;16307;42.896;20.874;2023-05-10T08:29:10;4.85;;;3.15;;
25381;SDS011;16307;42.896;20.874;2023-05-10T08:32:51;7.13;;;3.58;;
25381;SDS011;16307;42.896;20.874;2023-05-10T08:36:21;7.25;;;4.22;;
25381;SDS011;16307;42.896;20.874;2023-05-10T08:39:12;4.65;;;2.80;;
25381;SDS011;16307;42.896;20.874;2023-05-10T08:42:14;5.97;;;3.20;;
25381;SDS011;16307;42.896;20.874;2023-05-10T08:45:07;7.25;;;2.92;;
25381;SDS011;16307;42.896;20.874;2023-05-10T08:48:01;8.90;;;3.50;;
25381;SDS011;16307;42.896;20.874;2023-05-10T08:50:48;6.50;;;3.50;;
25381;SDS011;16307;42.896;20.874;2023-05-10T08:53:35;6.35;;;2.90;;
25381;SDS011;16307;42.896;20.874;2023-05-10T08:56:23;6.97;;;4.40;;
25381;SDS011;16307;42.896;20.874;2023-05-10T08:59:10;9.07;;;3.97;;
25381;SDS011;16307;42.896;20.874;2023-05-10T09:01:59;8.13;;;2.78;;
25381;SDS011;16307;42.896;20.874;2023-05-10T09:04:49;5.47;;;3.17;;
25381;SDS011;16307;42.896;20.874;2023-05-10T09:07:37;6.43;;;3.20;;
25381;SDS011;16307;42.896;20.874;2023-05-10T09:10:24;4.63;;;2.63;;
25381;SDS011;16307;42.896;20.874;2023-05-10T09:13:21;5.75;;;2.40;;
25381;SDS011;16307;42.896;20.874;2023-05-10T09:16:30;4.10;;;2.38;;
25381;SDS011;16307;42.896;20.874;2023-05-10T09:19:19;3.88;;;2.40;;
25381;SDS011;16307;42.896;20.874;2023-05-10T09:22:06;5.22;;;2.83;;
25381;SDS011;16307;42.896;20.874;2023-05-10T09:28:27;5.57;;;2.80;;
25381;SDS011;16307;42.896;20.874;2023-05-10T09:31:15;7.32;;;3.45;;
25381;SDS011;16307;42.896;20.874;2023-05-10T09:34:01;5.75;;;3.42;;
25381;SDS011;16307;42.896;20.874;2023-05-10T09:36:55;6.90;;;3.13;;
25381;SDS011;16307;42.896;20.874;2023-05-10T09:39:46;4.70;;;3.17;;
25381;SDS011;16307;42.896;20.874;2023-05-10T09:46:39;7.70;;;4.50;;
25381;SDS011;16307;42.896;20.874;2023-05-10T09:49:58;5.70;;;3.53;;
25381;SDS011;16307;42.896;20.874;2023-05-10T09:53:28;7.05;;;4.53;;
25381;SDS011;16307;42.896;20.874;2023-05-10T09:56:32;25.60;;;13.77;;
25381;SDS011;16307;42.896;20.874;2023-05-10T10:03:31;8.98;;;4.22;;
25381;SDS011;16307;42.896;20.874;2023-05-10T10:13:33;8.30;;;4.20;;
25381;SDS011;16307;42.896;20.874;2023-05-10T10:16:32;6.00;;;3.65;;
25381;SDS011;16307;42.896;20.874;2023-05-10T10:19:21;11.43;;;6.85;;
25381;SDS011;16307;42.896;20.874;2023-05-10T10:22:40;12.23;;;6.63;;
25381;SDS011;16307;42.896;20.874;2023-05-10T10:25:52;11.20;;;6.30;;
25381;SDS011;16307;42.896;20.874;2023-05-10T10:32:24;16.65;;;6.82;;
25381;SDS011;16307;42.896;20.874;2023-05-10T10:35:34;14.60;;;5.95;;
25381;SDS011;16307;42.896;20.874;2023-05-10T10:39:01;16.85;;;10.02;;
25381;SDS011;16307;42.896;20.874;2023-05-10T10:42:05;12.73;;;5.18;;
25381;SDS011;16307;42.896;20.874;2023-05-10T10:45:14;8.43;;;3.67;;
25381;SDS011;16307;42.896;20.874;2023-05-10T10:48:27;10.10;;;5.40;;
25381;SDS011;16307;42.896;20.874;2023-05-10T10:51:33;7.32;;;3.83;;
25381;SDS011;16307;42.896;20.874;2023-05-10T10:55:02;6.88;;;3.92;;
25381;SDS011;16307;42.896;20.874;2023-05-10T11:04:52;15.52;;;4.57;;
25381;SDS011;16307;42.896;20.874;2023-05-10T11:07:57;10.38;;;3.95;;
25381;SDS011;16307;42.896;20.874;2023-05-10T11:14:56;11.65;;;6.30;;
25381;SDS011;16307;42.896;20.874;2023-05-10T11:17:47;15.65;;;7.35;;
25381;SDS011;16307;42.896;20.874;2023-05-10T11:20:41;13.70;;;7.20;;
25381;SDS011;16307;42.896;20.874;2023-05-10T11:26:38;15.40;;;6.93;;
25381;SDS011;16307;42.896;20.874;2023-05-10T11:29:31;21.40;;;11.23;;
25381;SDS011;16307;42.896;20.874;2023-05-10T11:32:38;21.10;;;8.57;;
25381;SDS011;16307;42.896;20.874;2023-05-10T11:35:45;20.70;;;6.90;;
25381;SDS011;16307;42.896;20.874;2023-05-10T11:39:01;22.55;;;7.20;;
25381;SDS011;16307;42.896;20.874;2023-05-10T12:02:16;8.15;;;6.03;;
25381;SDS011;16307;42.896;20.874;2023-05-10T12:52:15;15.38;;;7.97;;
25381;SDS011;16307;42.896;20.874;2023-05-10T13:00:27;53.47;;;8.90;;
25381;SDS011;16307;42.896;20.874;2023-05-10T13:22:53;23.05;;;12.35;;
25381;SDS011;16307;42.896;20.874;2023-05-10T13:27:30;21.02;;;8.90;;
25381;SDS011;16307;42.896;20.874;2023-05-10T13:30:18;24.65;;;11.13;;
25381;SDS011;16307;42.896;20.874;2023-05-10T13:37:31;38.15;;;20.65;;
25381;SDS011;16307;42.896;20.874;2023-05-10T15:33:49;34.75;;;22.50;;
25381;SDS011;16307;42.896;20.874;2023-05-10T15:36:56;30.85;;;19.63;;
25381;SDS011;16307;42.896;20.874;2023-05-10T15:39:53;67.28;;;42.10;;
